sensor_id;sensor_type;location;lat;lon;timestamp;pressure;altitude;pressure_sealevel;temperature;humidity
14790;BME280;7486;51.010;10.366;2023-05-01T00:02:04;98625.09;;;3.48;65.49
14790;BME280;7486;51.010;10.366;2023-05-01T00:04:49;98623.75;;;3.44;65.55
14790;BME280;7486;51.010;10.366;2023-05-01T00:07:34;98610.63;;;3.61;65.15
14790;BME280;7486;51.010;10.366;2023-05-01T00:10:19;98618.84;;;3.66;64.12
14790;BME280;7486;51.010;10.366;2023-05-01T00:13:05;98620.16;;;3.45;64.67
14790;BME280;7486;51.010;10.366;2023-05-01T00:15:50;98609.28;;;3.22;65.81
14790;BME280;7486;51.010;10.366;2023-05-01T00:18:36;98563.44;;;2.83;65.32
14790;BME280;7486;51.010;10.366;2023-05-01T00:21:21;98601.66;;;3.11;65.79
14790;BME280;7486;51.010;10.366;2023-05-01T00:24:07;98596.50;;;3.19;65.73
14790;BME280;7486;51.010;10.366;2023-05-01T00:26:52;98605.16;;;3.20;65.71
14790;BME280;7486;51.010;10.366;2023-05-01T00:29:37;98530.75;;;2.51;66.12
14790;BME280;7486;51.010;10.366;2023-05-01T00:32:22;98580.66;;;2.58;66.30
14790;BME280;7486;51.010;10.366;2023-05-01T00:35:08;98595.97;;;2.80;66.51
14790;BME280;7486;51.010;10.366;2023-05-01T00:37:53;98599.34;;;2.90;66.48
14790;BME280;7486;51.010;10.366;2023-05-01T00:40:43;98597.31;;;3.20;65.90
14790;BME280;7486;51.010;10.366;2023-05-01T00:43:28;98587.19;;;3.34;65.48
14790;BME280;7486;51.010;10.366;2023-05-01T00:46:14;98587.09;;;3.44;65.52
14790;BME280;7486;51.010;10.366;2023-05-01T00:48:59;98573.34;;;3.68;64.23
14790;BME280;7486;51.010;10.366;2023-05-01T00:51:48;98583.72;;;3.77;63.96
14790;BME280;7486;51.010;10.366;2023-05-01T00:54:36;98570.03;;;3.83;63.43
14790;BME280;7486;51.010;10.366;2023-05-01T00:57:22;98568.19;;;3.84;63.37
14790;BME280;7486;51.010;10.366;2023-05-01T01:00:08;98566.88;;;3.54;64.07
14790;BME280;7486;51.010;10.366;2023-05-01T01:02:53;98570.63;;;3.34;64.82
14790;BME280;7486;51.010;10.366;2023-05-01T01:05:52;98554.75;;;3.53;64.28
14790;BME280;7486;51.010;10.366;2023-05-01T01:12:09;98491.03;;;3.44;64.37
14790;BME280;7486;51.010;10.366;2023-05-01T01:17:52;98543.03;;;3.91;62.81
14790;BME280;7486;51.010;10.366;2023-05-01T01:21:00;98541.59;;;3.96;62.23
14790;BME280;7486;51.010;10.366;2023-05-01T01:30:34;98491.81;;;3.71;62.26
14790;BME280;7486;51.010;10.366;2023-05-01T01:33:48;98530.41;;;3.86;62.95
14790;BME280;7486;51.010;10.366;2023-05-01T01:40:14;98519.31;;;3.41;64.50
14790;BME280;7486;51.010;10.366;2023-05-01T01:43:11;98521.09;;;3.40;64.11
14790;BME280;7486;51.010;10.366;2023-05-01T01:46:02;98522.00;;;3.49;64.05
14790;BME280;7486;51.010;10.366;2023-05-01T01:48:50;98522.19;;;3.55;64.17
14790;BME280;7486;51.010;10.366;2023-05-01T01:51:38;98518.06;;;3.53;64.33
14790;BME280;7486;51.010;10.366;2023-05-01T01:54:30;98515.53;;;3.35;65.42
14790;BME280;7486;51.010;10.366;2023-05-01T01:57:18;98512.63;;;3.46;64.87
14790;BME280;7486;51.010;10.366;2023-05-01T02:00:09;98504.84;;;3.54;64.76
14790;BME280;7486;51.010;10.366;2023-05-01T02:02:58;98503.56;;;3.58;64.96
14790;BME280;7486;51.010;10.366;2023-05-01T02:05:45;98503.38;;;3.60;64.07
14790;BME280;7486;51.010;10.366;2023-05-01T02:08:33;98462.03;;;3.38;64.49
14790;BME280;7486;51.010;10.366;2023-05-01T02:11:20;98481.72;;;3.50;63.87
14790;BME280;7486;51.010;10.366;2023-05-01T02:14:07;98420.53;;;3.25;63.89
14790;BME280;7486;51.010;10.366;2023-05-01T02:16:54;98487.44;;;3.45;63.78
14790;BME280;7486;51.010;10.366;2023-05-01T02:19:39;98481.91;;;3.56;64.14
14790;BME280;7486;51.010;10.366;2023-05-01T02:22:26;98453.72;;;3.42;62.66
14790;BME280;7486;51.010;10.366;2023-05-01T02:25:13;98482.22;;;3.53;63.37
14790;BME280;7486;51.010;10.366;2023-05-01T02:28:01;98472.44;;;3.55;63.61
14790;BME280;7486;51.010;10.366;2023-05-01T02:30:47;98401.44;;;3.07;63.12
14790;BME280;7486;51.010;10.366;2023-05-01T02:33:33;98467.81;;;3.49;64.29
14790;BME280;7486;51.010;10.366;2023-05-01T02:36:18;98455.44;;;3.34;65.37
14790;BME280;7486;51.010;10.366;2023-05-01T02:39:04;98464.00;;;3.18;65.09
14790;BME280;7486;51.010;10.366;2023-05-01T02:41:51;98459.72;;;3.17;64.47
14790;BME280;7486;51.010;10.366;2023-05-01T02:44:40;98459.00;;;3.07;64.68
14790;BME280;7486;51.010;10.366;2023-05-01T02:47:29;98455.09;;;3.11;64.20
14790;BME280;7486;51.010;10.366;2023-05-01T02:50:17;98447.41;;;3.09;64.69
14790;BME280;7486;51.010;10.366;2023-05-01T02:53:03;98450.59;;;3.21;64.18
14790;BME280;7486;51.010;10.366;2023-05-01T02:56:04;98416.72;;;2.94;64.69
14790;BME280;7486;51.010;10.366;2023-05-01T02:58:50;98443.09;;;3.26;64.36
14790;BME280;7486;51.010;10.366;2023-05-01T03:01:35;98410.56;;;3.03;64.13
14790;BME280;7486;51.010;10.366;2023-05-01T03:04:21;98439.09;;;3.14;65.41
14790;BME280;7486;51.010;10.366;2023-05-01T03:07:06;98438.38;;;3.04;65.19
14790;BME280;7486;51.010;10.366;2023-05-01T03:09:51;98427.03;;;2.78;65.37
14790;BME280;7486;51.010;10.366;2023-05-01T03:12:36;98433.06;;;2.70;66.39
14790;BME280;7486;51.010;10.366;2023-05-01T03:15:21;98433.81;;;2.88;65.66
14790;BME280;7486;51.010;10.366;2023-05-01T03:18:07;98428.22;;;3.01;65.06
14790;BME280;7486;51.010;10.366;2023-05-01T03:20:53;98428.94;;;3.11;64.91
14790;BME280;7486;51.010;10.366;2023-05-01T03:23:38;98428.63;;;3.14;64.56
14790;BME280;7486;51.010;10.366;2023-05-01T03:26:24;98428.44;;;3.07;64.57
14790;BME280;7486;51.010;10.366;2023-05-01T03:29:09;98429.81;;;2.94;65.06
14790;BME280;7486;51.010;10.366;2023-05-01T03:31:54;98419.41;;;2.84;65.33
14790;BME280;7486;51.010;10.366;2023-05-01T03:34:39;98423.13;;;2.99;65.75
14790;BME280;7486;51.010;10.366;2023-05-01T03:37:25;98418.91;;;3.06;65.09
14790;BME280;7486;51.010;10.366;2023-05-01T03:40:10;98414.50;;;3.07;64.38
14790;BME280;7486;51.010;10.366;2023-05-01T03:43:15;98411.31;;;2.70;65.41
14790;BME280;7486;51.010;10.366;2023-05-01T03:46:01;98413.91;;;2.70;66.04
14790;BME280;7486;51.010;10.366;2023-05-01T03:48:46;98401.41;;;2.81;65.88
14790;BME280;7486;51.010;10.366;2023-05-01T03:51:31;98405.34;;;2.42;66.56
14790;BME280;7486;51.010;10.366;2023-05-01T03:54:16;98398.25;;;2.34;67.55
14790;BME280;7486;51.010;10.366;2023-05-01T03:57:14;98403.28;;;2.53;67.07
14790;BME280;7486;51.010;10.366;2023-05-01T03:59:59;98401.16;;;2.67;66.88
14790;BME280;7486;51.010;10.366;2023-05-01T04:02:48;98397.75;;;2.74;66.82
14790;BME280;7486;51.010;10.366;2023-05-01T04:05:38;98314.16;;;2.03;66.57
14790;BME280;7486;51.010;10.366;2023-05-01T04:08:24;98394.44;;;2.46;67.09
14790;BME280;7486;51.010;10.366;2023-05-01T04:11:09;98394.66;;;2.53;66.85
14790;BME280;7486;51.010;10.366;2023-05-01T04:13:54;98399.06;;;2.52;67.28
14790;BME280;7486;51.010;10.366;2023-05-01T04:16:40;98396.06;;;2.65;67.83
14790;BME280;7486;51.010;10.366;2023-05-01T04:19:26;98393.34;;;2.57;67.28
14790;BME280;7486;51.010;10.366;2023-05-01T04:22:14;98394.72;;;2.61;68.04
14790;BME280;7486;51.010;10.366;2023-05-01T04:25:00;98392.16;;;2.69;67.68
14790;BME280;7486;51.010;10.366;2023-05-01T04:27:45;98396.66;;;2.77;68.01
14790;BME280;7486;51.010;10.366;2023-05-01T04:30:32;98387.38;;;2.64;68.20
14790;BME280;7486;51.010;10.366;2023-05-01T04:33:17;98338.28;;;2.33;68.48
14790;BME280;7486;51.010;10.366;2023-05-01T04:36:03;98397.00;;;2.64;68.03
14790;BME280;7486;51.010;10.366;2023-05-01T04:38:48;98401.75;;;2.43;68.99
14790;BME280;7486;51.010;10.366;2023-05-01T04:41:34;98401.50;;;2.72;68.96
14790;BME280;7486;51.010;10.366;2023-05-01T04:44:21;98388.19;;;2.83;69.82
14790;BME280;7486;51.010;10.366;2023-05-01T04:47:07;98346.56;;;2.46;69.15
14790;BME280;7486;51.010;10.366;2023-05-01T04:49:53;98406.16;;;3.03;68.72
14790;BME280;7486;51.010;10.366;2023-05-01T04:52:39;98406.78;;;2.97;69.34
14790;BME280;7486;51.010;10.366;2023-05-01T04:55:25;98396.44;;;2.96;68.70
14790;BME280;7486;51.010;10.366;2023-05-01T04:58:20;98394.78;;;3.38;66.72
14790;BME280;7486;51.010;10.366;2023-05-01T05:01:09;98399.88;;;3.48;65.80
14790;BME280;7486;51.010;10.366;2023-05-01T05:03:55;98323.25;;;3.04;65.89
14790;BME280;7486;51.010;10.366;2023-05-01T05:06:41;98395.66;;;3.55;67.48
14790;BME280;7486;51.010;10.366;2023-05-01T05:09:32;98399.00;;;3.31;68.27
14790;BME280;7486;51.010;10.366;2023-05-01T05:12:18;98400.31;;;3.35;68.48
14790;BME280;7486;51.010;10.366;2023-05-01T05:15:03;98347.44;;;3.06;69.49
14790;BME280;7486;51.010;10.366;2023-05-01T05:17:48;98390.94;;;3.58;69.21
14790;BME280;7486;51.010;10.366;2023-05-01T05:20:37;98399.88;;;3.48;69.39
14790;BME280;7486;51.010;10.366;2023-05-01T05:23:22;98376.97;;;3.42;69.14
14790;BME280;7486;51.010;10.366;2023-05-01T05:26:08;98393.56;;;3.66;68.11
14790;BME280;7486;51.010;10.366;2023-05-01T05:28:53;98390.66;;;3.78;67.96
14790;BME280;7486;51.010;10.366;2023-05-01T05:31:38;98392.50;;;3.85;68.52
14790;BME280;7486;51.010;10.366;2023-05-01T05:34:24;98387.63;;;3.90;68.53
14790;BME280;7486;51.010;10.366;2023-05-01T05:37:10;98381.91;;;4.11;68.81
14790;BME280;7486;51.010;10.366;2023-05-01T05:40:03;98380.00;;;4.21;67.67
14790;BME280;7486;51.010;10.366;2023-05-01T05:42:55;98384.28;;;4.38;67.88
14790;BME280;7486;51.010;10.366;2023-05-01T05:45:43;98376.72;;;4.59;67.45
14790;BME280;7486;51.010;10.366;2023-05-01T05:48:28;98379.50;;;4.74;66.78
14790;BME280;7486;51.010;10.366;2023-05-01T05:51:13;98375.41;;;4.72;66.57
14790;BME280;7486;51.010;10.366;2023-05-01T05:53:58;98377.38;;;4.69;66.40
14790;BME280;7486;51.010;10.366;2023-05-01T05:56:44;98374.44;;;4.64;66.78
14790;BME280;7486;51.010;10.366;2023-05-01T05:59:29;98379.19;;;4.61;65.67
14790;BME280;7486;51.010;10.366;2023-05-01T06:02:16;98374.09;;;4.84;66.08
14790;BME280;7486;51.010;10.366;2023-05-01T06:05:02;98373.75;;;5.03;66.99
14790;BME280;7486;51.010;10.366;2023-05-01T06:07:47;98358.72;;;5.44;65.06
14790;BME280;7486;51.010;10.366;2023-05-01T06:10:33;98369.63;;;5.72;64.78
14790;BME280;7486;51.010;10.366;2023-05-01T06:13:19;98366.59;;;5.83;63.87
14790;BME280;7486;51.010;10.366;2023-05-01T06:16:06;98357.25;;;5.80;63.51
14790;BME280;7486;51.010;10.366;2023-05-01T06:18:52;98359.38;;;6.07;61.70
14790;BME280;7486;51.010;10.366;2023-05-01T06:21:37;98353.97;;;6.09;62.57
14790;BME280;7486;51.010;10.366;2023-05-01T06:24:23;98355.91;;;6.15;64.20
14790;BME280;7486;51.010;10.366;2023-05-01T06:27:10;98360.28;;;6.23;62.75
14790;BME280;7486;51.010;10.366;2023-05-01T06:29:55;98353.53;;;6.20;62.77
14790;BME280;7486;51.010;10.366;2023-05-01T06:32:41;98350.03;;;6.28;63.27
14790;BME280;7486;51.010;10.366;2023-05-01T06:35:28;98302.72;;;6.05;63.30
14790;BME280;7486;51.010;10.366;2023-05-01T06:38:13;98351.81;;;6.35;64.21
14790;BME280;7486;51.010;10.366;2023-05-01T06:40:59;98319.53;;;6.41;63.96
14790;BME280;7486;51.010;10.366;2023-05-01T06:43:44;98356.53;;;6.62;62.74
14790;BME280;7486;51.010;10.366;2023-05-01T06:46:29;98316.63;;;6.51;63.16
14790;BME280;7486;51.010;10.366;2023-05-01T06:49:14;98301.78;;;6.58;61.67
14790;BME280;7486;51.010;10.366;2023-05-01T06:52:00;98351.25;;;7.00;61.66
14790;BME280;7486;51.010;10.366;2023-05-01T06:54:46;98347.38;;;7.10;61.92
14790;BME280;7486;51.010;10.366;2023-05-01T06:57:31;98344.09;;;7.38;59.60
14790;BME280;7486;51.010;10.366;2023-05-01T07:00:17;98329.28;;;7.51;60.75
14790;BME280;7486;51.010;10.366;2023-05-01T07:03:03;98346.09;;;7.65;60.10
14790;BME280;7486;51.010;10.366;2023-05-01T07:05:49;98334.41;;;7.74;60.20
14790;BME280;7486;51.010;10.366;2023-05-01T07:08:34;98306.72;;;7.99;58.81
14790;BME280;7486;51.010;10.366;2023-05-01T07:11:20;98322.28;;;8.51;58.68
14790;BME280;7486;51.010;10.366;2023-05-01T07:14:05;98315.19;;;8.80;57.06
14790;BME280;7486;51.010;10.366;2023-05-01T07:16:50;98321.66;;;9.05;57.23
14790;BME280;7486;51.010;10.366;2023-05-01T07:19:36;98317.84;;;9.14;54.66
14790;BME280;7486;51.010;10.366;2023-05-01T07:22:21;98292.38;;;9.34;54.17
14790;BME280;7486;51.010;10.366;2023-05-01T07:25:07;98309.78;;;9.63;54.43
14790;BME280;7486;51.010;10.366;2023-05-01T07:27:53;98312.06;;;9.73;55.10
14790;BME280;7486;51.010;10.366;2023-05-01T07:30:38;98309.25;;;9.87;55.94
14790;BME280;7486;51.010;10.366;2023-05-01T07:33:24;98300.69;;;9.72;55.50
14790;BME280;7486;51.010;10.366;2023-05-01T07:36:09;98234.84;;;9.43;56.20
14790;BME280;7486;51.010;10.366;2023-05-01T07:38:55;98275.25;;;9.84;54.78
14790;BME280;7486;51.010;10.366;2023-05-01T07:41:40;98296.28;;;10.05;55.05
14790;BME280;7486;51.010;10.366;2023-05-01T07:44:26;98249.25;;;10.07;50.80
14790;BME280;7486;51.010;10.366;2023-05-01T07:47:11;98277.81;;;10.78;48.49
14790;BME280;7486;51.010;10.366;2023-05-01T07:49:57;98289.84;;;10.67;52.35
14790;BME280;7486;51.010;10.366;2023-05-01T07:52:43;98208.34;;;10.30;49.53
14790;BME280;7486;51.010;10.366;2023-05-01T07:55:28;98301.03;;;10.69;52.49
14790;BME280;7486;51.010;10.366;2023-05-01T07:58:14;98267.81;;;10.66;49.91
14790;BME280;7486;51.010;10.366;2023-05-01T08:01:02;98282.50;;;10.69;51.98
14790;BME280;7486;51.010;10.366;2023-05-01T08:03:48;98272.28;;;10.72;51.10
14790;BME280;7486;51.010;10.366;2023-05-01T08:06:35;98268.56;;;11.13;50.47
14790;BME280;7486;51.010;10.366;2023-05-01T08:09:20;98271.22;;;11.13;51.05
14790;BME280;7486;51.010;10.366;2023-05-01T08:12:06;98262.88;;;11.03;54.45
14790;BME280;7486;51.010;10.366;2023-05-01T08:14:52;98267.09;;;11.17;54.83
14790;BME280;7486;51.010;10.366;2023-05-01T08:17:37;98256.25;;;11.32;52.66
14790;BME280;7486;51.010;10.366;2023-05-01T08:20:22;98266.81;;;11.45;51.39
14790;BME280;7486;51.010;10.366;2023-05-01T08:23:08;98249.63;;;11.67;51.52
14790;BME280;7486;51.010;10.366;2023-05-01T08:25:53;98252.44;;;11.72;53.45
14790;BME280;7486;51.010;10.366;2023-05-01T08:28:39;98256.19;;;11.45;51.56
14790;BME280;7486;51.010;10.366;2023-05-01T08:31:24;98249.66;;;11.54;50.79
14790;BME280;7486;51.010;10.366;2023-05-01T08:34:10;98254.16;;;11.53;53.15
14790;BME280;7486;51.010;10.366;2023-05-01T08:36:55;98149.50;;;11.05;52.10
14790;BME280;7486;51.010;10.366;2023-05-01T08:39:40;98251.53;;;11.47;52.24
14790;BME280;7486;51.010;10.366;2023-05-01T08:42:27;98233.88;;;11.14;51.96
14790;BME280;7486;51.010;10.366;2023-05-01T08:45:17;98242.97;;;11.38;54.38
14790;BME280;7486;51.010;10.366;2023-05-01T08:48:06;98250.81;;;11.71;53.57
14790;BME280;7486;51.010;10.366;2023-05-01T08:50:54;98226.28;;;11.76;51.67
14790;BME280;7486;51.010;10.366;2023-05-01T08:53:41;98214.53;;;11.58;49.50
14790;BME280;7486;51.010;10.366;2023-05-01T08:56:29;98176.75;;;11.25;51.57
14790;BME280;7486;51.010;10.366;2023-05-01T08:59:15;98246.66;;;11.82;52.71
14790;BME280;7486;51.010;10.366;2023-05-01T09:02:03;98244.25;;;12.36;51.90
14790;BME280;7486;51.010;10.366;2023-05-01T09:04:49;98232.16;;;13.08;50.29
14790;BME280;7486;51.010;10.366;2023-05-01T09:07:35;98184.28;;;12.71;50.18
14790;BME280;7486;51.010;10.366;2023-05-01T09:10:21;98223.69;;;12.74;49.46
14790;BME280;7486;51.010;10.366;2023-05-01T09:13:08;98220.56;;;12.35;52.40
14790;BME280;7486;51.010;10.366;2023-05-01T09:15:54;98166.94;;;12.44;51.34
14790;BME280;7486;51.010;10.366;2023-05-01T09:18:39;98170.63;;;12.86;47.71
14790;BME280;7486;51.010;10.366;2023-05-01T09:21:29;98195.66;;;13.15;48.87
14790;BME280;7486;51.010;10.366;2023-05-01T09:24:14;98207.41;;;13.07;48.81
14790;BME280;7486;51.010;10.366;2023-05-01T09:26:59;98208.97;;;13.15;47.62
14790;BME280;7486;51.010;10.366;2023-05-01T09:29:46;98209.59;;;12.92;48.28
14790;BME280;7486;51.010;10.366;2023-05-01T09:32:32;98201.97;;;12.78;48.24
14790;BME280;7486;51.010;10.366;2023-05-01T09:35:17;98201.63;;;12.92;50.63
14790;BME280;7486;51.010;10.366;2023-05-01T09:38:02;98197.09;;;13.29;49.83
14790;BME280;7486;51.010;10.366;2023-05-01T09:40:48;98148.06;;;13.25;47.96
14790;BME280;7486;51.010;10.366;2023-05-01T09:43:34;98164.84;;;13.85;47.35
14790;BME280;7486;51.010;10.366;2023-05-01T09:46:20;98194.16;;;14.08;50.19
14790;BME280;7486;51.010;10.366;2023-05-01T09:49:06;98186.94;;;13.86;49.86
14790;BME280;7486;51.010;10.366;2023-05-01T09:51:51;98198.72;;;13.78;47.68
14790;BME280;7486;51.010;10.366;2023-05-01T09:54:37;98186.59;;;13.82;50.23
14790;BME280;7486;51.010;10.366;2023-05-01T09:57:41;98187.00;;;14.09;50.05
14790;BME280;7486;51.010;10.366;2023-05-01T10:00:27;98188.69;;;14.56;47.40
14790;BME280;7486;51.010;10.366;2023-05-01T10:03:13;98190.66;;;14.61;47.99
14790;BME280;7486;51.010;10.366;2023-05-01T10:05:58;98146.75;;;14.52;47.81
14790;BME280;7486;51.010;10.366;2023-05-01T10:08:48;98185.31;;;14.72;47.96
14790;BME280;7486;51.010;10.366;2023-05-01T10:12:03;98184.59;;;14.77;49.68
14790;BME280;7486;51.010;10.366;2023-05-01T10:14:52;98174.38;;;14.39;50.00
14790;BME280;7486;51.010;10.366;2023-05-01T10:17:39;98151.56;;;14.32;48.54
14790;BME280;7486;51.010;10.366;2023-05-01T10:20:25;98122.44;;;14.88;46.89
14790;BME280;7486;51.010;10.366;2023-05-01T10:23:10;98124.34;;;15.16;46.28
14790;BME280;7486;51.010;10.366;2023-05-01T10:25:56;98162.81;;;15.32;45.63
14790;BME280;7486;51.010;10.366;2023-05-01T10:28:47;98146.00;;;15.59;45.12
14790;BME280;7486;51.010;10.366;2023-05-01T10:31:33;98157.16;;;15.56;45.23
14790;BME280;7486;51.010;10.366;2023-05-01T10:34:20;98121.88;;;15.26;44.02
14790;BME280;7486;51.010;10.366;2023-05-01T10:37:20;98140.44;;;15.78;44.10
14790;BME280;7486;51.010;10.366;2023-05-01T10:43:29;98139.91;;;16.09;42.81
14790;BME280;7486;51.010;10.366;2023-05-01T10:49:03;98121.94;;;16.21;43.21
14790;BME280;7486;51.010;10.366;2023-05-01T10:54:42;98135.38;;;16.09;38.13
14790;BME280;7486;51.010;10.366;2023-05-01T10:57:41;98128.56;;;16.35;41.87
14790;BME280;7486;51.010;10.366;2023-05-01T11:00:27;98124.41;;;16.61;40.75
14790;BME280;7486;51.010;10.366;2023-05-01T11:06:07;98074.97;;;15.75;37.51
14790;BME280;7486;51.010;10.366;2023-05-01T11:08:53;98114.84;;;16.48;37.14
14790;BME280;7486;51.010;10.366;2023-05-01T11:14:24;98099.56;;;16.87;35.00
14790;BME280;7486;51.010;10.366;2023-05-01T11:17:10;98104.03;;;16.98;37.63
14790;BME280;7486;51.010;10.366;2023-05-01T11:19:55;98105.88;;;16.98;35.25
14790;BME280;7486;51.010;10.366;2023-05-01T11:22:44;98105.13;;;17.02;34.84
14790;BME280;7486;51.010;10.366;2023-05-01T11:25:30;98103.44;;;16.96;33.85
14790;BME280;7486;51.010;10.366;2023-05-01T11:28:18;98103.22;;;16.59;34.97
14790;BME280;7486;51.010;10.366;2023-05-01T11:31:04;98098.44;;;16.61;34.00
14790;BME280;7486;51.010;10.366;2023-05-01T11:33:49;98096.63;;;16.45;35.07
14790;BME280;7486;51.010;10.366;2023-05-01T11:36:48;98098.47;;;16.45;35.99
14790;BME280;7486;51.010;10.366;2023-05-01T11:39:34;98098.75;;;16.43;33.74
14790;BME280;7486;51.010;10.366;2023-05-01T11:42:20;98097.03;;;16.37;34.60
14790;BME280;7486;51.010;10.366;2023-05-01T11:45:07;98090.09;;;16.58;32.26
14790;BME280;7486;51.010;10.366;2023-05-01T11:47:52;98079.16;;;16.59;35.70
14790;BME280;7486;51.010;10.366;2023-05-01T11:50:38;98088.28;;;16.42;33.94
14790;BME280;7486;51.010;10.366;2023-05-01T11:53:23;98093.25;;;16.33;36.46
14790;BME280;7486;51.010;10.366;2023-05-01T11:56:19;98096.03;;;16.21;36.63
14790;BME280;7486;51.010;10.366;2023-05-01T11:59:13;98089.03;;;16.20;36.77
14790;BME280;7486;51.010;10.366;2023-05-01T12:01:59;98093.16;;;16.28;35.18
14790;BME280;7486;51.010;10.366;2023-05-01T12:04:44;98085.25;;;16.33;36.47
14790;BME280;7486;51.010;10.366;2023-05-01T12:07:29;98080.41;;;16.52;34.55
14790;BME280;7486;51.010;10.366;2023-05-01T12:10:15;98085.88;;;16.23;36.85
14790;BME280;7486;51.010;10.366;2023-05-01T12:13:03;98039.19;;;16.09;36.15
14790;BME280;7486;51.010;10.366;2023-05-01T12:15:50;98064.41;;;16.35;37.89
14790;BME280;7486;51.010;10.366;2023-05-01T12:18:36;98085.69;;;16.47;35.45
14790;BME280;7486;51.010;10.366;2023-05-01T12:21:21;98089.63;;;16.61;36.93
14790;BME280;7486;51.010;10.366;2023-05-01T12:24:16;98088.59;;;16.45;36.05
14790;BME280;7486;51.010;10.366;2023-05-01T12:27:02;98087.19;;;16.59;36.40
14790;BME280;7486;51.010;10.366;2023-05-01T12:29:48;98085.78;;;16.35;36.57
14790;BME280;7486;51.010;10.366;2023-05-01T12:32:33;98084.13;;;16.51;35.97
14790;BME280;7486;51.010;10.366;2023-05-01T12:35:19;98079.09;;;16.54;37.31
14790;BME280;7486;51.010;10.366;2023-05-01T12:38:12;98077.63;;;16.63;37.38
14790;BME280;7486;51.010;10.366;2023-05-01T12:40:58;98081.28;;;16.79;35.21
14790;BME280;7486;51.010;10.366;2023-05-01T12:43:43;98076.41;;;16.54;35.10
14790;BME280;7486;51.010;10.366;2023-05-01T12:46:29;98077.03;;;16.61;35.16
14790;BME280;7486;51.010;10.366;2023-05-01T12:49:16;98076.50;;;16.81;33.36
14790;BME280;7486;51.010;10.366;2023-05-01T12:52:04;98075.38;;;16.99;33.97
14790;BME280;7486;51.010;10.366;2023-05-01T12:54:49;98073.19;;;17.17;36.97
14790;BME280;7486;51.010;10.366;2023-05-01T12:57:35;98075.13;;;17.22;36.81
14790;BME280;7486;51.010;10.366;2023-05-01T13:00:20;98067.72;;;17.07;34.48
14790;BME280;7486;51.010;10.366;2023-05-01T13:03:05;98068.66;;;16.96;34.91
14790;BME280;7486;51.010;10.366;2023-05-01T13:05:56;98074.13;;;16.85;35.10
14790;BME280;7486;51.010;10.366;2023-05-01T13:08:43;98067.72;;;16.86;36.58
14790;BME280;7486;51.010;10.366;2023-05-01T13:11:28;98070.28;;;16.75;37.95
14790;BME280;7486;51.010;10.366;2023-05-01T13:14:13;98064.09;;;17.18;37.05
14790;BME280;7486;51.010;10.366;2023-05-01T13:17:00;98059.78;;;17.44;35.90
14790;BME280;7486;51.010;10.366;2023-05-01T13:19:52;98060.28;;;17.36;36.78
14790;BME280;7486;51.010;10.366;2023-05-01T13:22:38;98064.50;;;17.32;38.06
14790;BME280;7486;51.010;10.366;2023-05-01T13:25:23;98058.47;;;17.20;39.30
14790;BME280;7486;51.010;10.366;2023-05-01T13:28:08;98065.34;;;17.11;39.44
14790;BME280;7486;51.010;10.366;2023-05-01T13:30:54;98065.91;;;17.13;38.74
14790;BME280;7486;51.010;10.366;2023-05-01T13:33:40;98062.06;;;17.31;38.88
14790;BME280;7486;51.010;10.366;2023-05-01T13:36:30;98057.66;;;17.19;40.94
14790;BME280;7486;51.010;10.366;2023-05-01T13:39:18;98040.41;;;17.32;39.30
14790;BME280;7486;51.010;10.366;2023-05-01T13:42:05;98056.41;;;17.27;37.09
14790;BME280;7486;51.010;10.366;2023-05-01T13:44:53;98040.31;;;17.22;37.37
14790;BME280;7486;51.010;10.366;2023-05-01T13:47:40;98049.88;;;17.40;39.11
14790;BME280;7486;51.010;10.366;2023-05-01T13:50:26;98052.88;;;17.48;36.67
14790;BME280;7486;51.010;10.366;2023-05-01T13:53:11;98044.25;;;17.41;37.94
14790;BME280;7486;51.010;10.366;2023-05-01T13:55:58;98047.00;;;17.51;38.69
14790;BME280;7486;51.010;10.366;2023-05-01T13:58:43;98047.66;;;17.63;38.66
14790;BME280;7486;51.010;10.366;2023-05-01T14:01:28;98034.75;;;17.60;38.50
14790;BME280;7486;51.010;10.366;2023-05-01T14:04:15;98042.63;;;17.67;36.84
14790;BME280;7486;51.010;10.366;2023-05-01T14:07:01;98036.47;;;17.71;37.94
14790;BME280;7486;51.010;10.366;2023-05-01T14:09:55;98033.19;;;17.64;36.50
14790;BME280;7486;51.010;10.366;2023-05-01T14:12:41;97999.06;;;17.50;37.67
14790;BME280;7486;51.010;10.366;2023-05-01T14:15:27;98034.69;;;17.23;37.85
14790;BME280;7486;51.010;10.366;2023-05-01T14:18:15;98045.56;;;17.39;39.21
14790;BME280;7486;51.010;10.366;2023-05-01T14:21:00;98042.97;;;17.49;38.88
14790;BME280;7486;51.010;10.366;2023-05-01T14:23:46;97985.63;;;17.13;40.30
14790;BME280;7486;51.010;10.366;2023-05-01T14:26:31;98036.66;;;17.33;41.39
14790;BME280;7486;51.010;10.366;2023-05-01T14:29:21;98006.94;;;17.03;39.68
14790;BME280;7486;51.010;10.366;2023-05-01T14:32:07;97953.81;;;16.63;40.13
14790;BME280;7486;51.010;10.366;2023-05-01T14:34:52;98027.63;;;17.12;40.50
14790;BME280;7486;51.010;10.366;2023-05-01T14:37:37;98032.13;;;17.07;40.41
14790;BME280;7486;51.010;10.366;2023-05-01T14:40:26;98036.75;;;16.90;41.60
14790;BME280;7486;51.010;10.366;2023-05-01T14:43:14;98040.56;;;16.94;41.72
14790;BME280;7486;51.010;10.366;2023-05-01T14:46:00;98028.75;;;16.46;39.67
14790;BME280;7486;51.010;10.366;2023-05-01T14:48:46;97995.97;;;15.96;40.63
14790;BME280;7486;51.010;10.366;2023-05-01T14:51:32;98038.91;;;16.28;40.52
14790;BME280;7486;51.010;10.366;2023-05-01T14:54:17;98039.66;;;15.90;42.65
14790;BME280;7486;51.010;10.366;2023-05-01T14:57:04;98005.16;;;15.33;39.99
14790;BME280;7486;51.010;10.366;2023-05-01T14:59:49;98041.00;;;15.54;41.16
14790;BME280;7486;51.010;10.366;2023-05-01T15:02:34;97979.00;;;15.35;39.81
14790;BME280;7486;51.010;10.366;2023-05-01T15:05:20;98040.06;;;15.32;40.76
14790;BME280;7486;51.010;10.366;2023-05-01T15:08:06;97978.13;;;14.85;40.86
14790;BME280;7486;51.010;10.366;2023-05-01T15:10:53;98039.44;;;15.41;40.72
14790;BME280;7486;51.010;10.366;2023-05-01T15:13:38;98042.63;;;15.71;39.88
14790;BME280;7486;51.010;10.366;2023-05-01T15:16:26;98023.34;;;15.53;35.33
14790;BME280;7486;51.010;10.366;2023-05-01T15:19:12;98034.19;;;15.18;38.78
14790;BME280;7486;51.010;10.366;2023-05-01T15:21:57;98041.13;;;15.31;41.23